createdAt,value
2023-04-19T00:02:01.056Z,0.22
2023-04-19T00:07:23.543Z,0.16
2023-04-19T00:12:45.711Z,0.03
2023-04-19T00:18:08.212Z,0.01
2023-04-19T00:23:30.519Z,0.04
2023-04-19T00:28:52.849Z,-0.02
2023-04-19T00:34:15.685Z,-0.06
2023-04-19T00:39:40.743Z,-0.09
2023-04-19T00:45:03.167Z,-0.11
2023-04-19T00:50:25.933Z,-0.12
2023-04-19T00:55:51.964Z,-0.18
2023-04-19T01:01:14.291Z,-0.24
2023-04-19T01:06:38.880Z,-0.35
2023-04-19T01:12:03.091Z,-0.42
2023-04-19T01:17:26.873Z,-0.42
2023-04-19T01:22:49.285Z,-0.42
2023-04-19T01:28:11.513Z,-0.38
2023-04-19T01:33:33.604Z,-0.40
2023-04-19T01:38:56.330Z,-0.41
2023-04-19T01:44:18.669Z,-0.47
2023-04-19T01:49:41.729Z,-0.66
2023-04-19T01:55:06.678Z,-0.78
2023-04-19T02:00:31.060Z,-0.73
2023-04-19T02:05:53.206Z,-0.76
2023-04-19T02:11:17.798Z,-0.83
2023-04-19T02:16:39.954Z,-0.76
2023-04-19T02:22:04.637Z,-0.89
2023-04-19T02:27:27.289Z,-0.77
2023-04-19T02:32:50.344Z,-0.88
2023-04-19T02:38:12.297Z,-0.74
2023-04-19T02:43:36.674Z,-0.82
2023-04-19T02:49:01.935Z,-0.66
2023-04-19T02:54:24.145Z,-0.58
2023-04-19T02:59:47.800Z,-0.54
2023-04-19T03:05:12.051Z,-0.45
2023-04-19T03:10:34.195Z,-0.52
2023-04-19T03:15:57.415Z,-0.35
2023-04-19T03:21:19.680Z,-0.21
2023-04-19T03:26:47.682Z,-0.15
2023-04-19T03:32:12.543Z,0.05
2023-04-19T03:37:35.381Z,0.22
2023-04-19T03:42:58.770Z,0.40
2023-04-19T03:48:26.007Z,0.57
2023-04-19T03:53:48.469Z,0.77
2023-04-19T03:59:14.308Z,1.09
2023-04-19T04:04:38.868Z,1.43
2023-04-19T04:10:03.494Z,1.74
2023-04-19T04:15:30.326Z,2.09
2023-04-19T04:20:55.055Z,2.50
2023-04-19T04:26:20.750Z,3.93
2023-04-19T04:32:11.594Z,5.54
2023-04-19T04:37:37.516Z,6.17
2023-04-19T04:43:05.041Z,6.68
2023-04-19T04:48:28.883Z,7.14
2023-04-19T04:53:52.232Z,7.71
2023-04-19T04:59:15.991Z,8.54
2023-04-19T05:04:41.890Z,9.29
2023-04-19T05:10:04.768Z,10.02
2023-04-19T05:15:37.870Z,10.67
2023-04-19T05:21:00.208Z,11.15
2023-04-19T05:26:28.740Z,11.47
2023-04-19T05:31:56.369Z,11.68
2023-04-19T05:37:27.810Z,12.08
2023-04-19T05:42:54.312Z,12.34
2023-04-19T05:54:24.833Z,13.32
2023-04-19T05:59:47.041Z,13.83
2023-04-19T06:05:13.626Z,14.12
2023-04-19T06:10:52.700Z,14.21
2023-04-19T06:16:17.817Z,14.69
2023-04-19T06:21:39.364Z,15.17
2023-04-19T06:27:02.820Z,15.09
2023-04-19T06:32:26.376Z,15.26
2023-04-19T06:37:49.435Z,15.10
2023-04-19T06:43:12.737Z,15.56
2023-04-19T06:54:19.561Z,15.45
2023-04-19T06:59:42.036Z,15.31
2023-04-19T07:05:04.456Z,15.51
2023-04-19T07:10:26.470Z,15.28
2023-04-19T07:15:48.332Z,15.06
2023-04-19T07:21:12.915Z,15.16
2023-04-19T07:26:46.218Z,14.99
2023-04-19T07:32:09.026Z,14.96
2023-04-19T07:37:33.231Z,15.01
2023-04-19T07:42:57.451Z,15.04
2023-04-19T07:48:20.212Z,15.22
2023-04-19T07:54:02.734Z,15.60
2023-04-19T07:59:24.885Z,15.64
2023-04-19T08:04:48.834Z,15.39
2023-04-19T08:10:11.398Z,15.38
2023-04-19T08:21:00.392Z,15.74
2023-04-19T08:26:23.361Z,15.71
2023-04-19T08:31:45.801Z,16.17
2023-04-19T08:37:08.458Z,16.32
2023-04-19T08:42:36.717Z,16.19
2023-04-19T08:48:02.084Z,16.23
2023-04-19T08:53:26.221Z,16.27
2023-04-19T09:09:45.695Z,16.46
2023-04-19T09:15:17.512Z,16.73
2023-04-19T09:20:41.789Z,16.75
2023-04-19T09:31:47.925Z,16.95
2023-04-19T09:37:22.745Z,17.07
2023-04-19T09:48:19.924Z,16.96
2023-04-19T09:53:44.384Z,16.52
2023-04-19T09:59:20.299Z,16.64
2023-04-19T10:04:57.394Z,16.71
2023-04-19T10:10:40.305Z,16.65
2023-04-19T10:16:18.295Z,17.17
2023-04-19T10:21:48.181Z,17.15
2023-04-19T10:27:12.865Z,17.28
2023-04-19T10:32:43.267Z,17.28
2023-04-19T10:38:14.199Z,17.29
2023-04-19T10:43:37.235Z,16.95
2023-04-19T10:49:01.437Z,17.12
2023-04-19T10:54:34.773Z,17.27
2023-04-19T11:00:20.506Z,17.31
2023-04-19T11:06:27.571Z,17.31
2023-04-19T11:11:49.234Z,17.24
2023-04-19T11:17:26.192Z,17.19
2023-04-19T11:22:48.717Z,17.25
2023-04-19T11:28:10.849Z,17.43
2023-04-19T11:33:36.937Z,17.68
2023-04-19T11:39:02.674Z,17.42
2023-04-19T11:44:25.019Z,17.21
2023-04-19T11:49:50.826Z,17.21
2023-04-19T11:55:19.396Z,17.08
2023-04-19T12:00:47.801Z,16.87
2023-04-19T12:06:15.473Z,16.60
2023-04-19T12:11:46.322Z,16.76
2023-04-19T12:17:14.094Z,17.27
2023-04-19T12:22:35.685Z,17.37
2023-04-19T12:28:01.788Z,17.22
2023-04-19T12:33:24.069Z,17.00
2023-04-19T12:38:46.473Z,16.90
2023-04-19T12:44:08.044Z,16.64
2023-04-19T12:49:30.103Z,16.57
2023-04-19T12:54:51.905Z,16.32
2023-04-19T13:00:14.249Z,16.41
2023-04-19T13:05:36.054Z,16.54
2023-04-19T13:11:00.328Z,16.77
2023-04-19T13:16:23.045Z,16.99
2023-04-19T13:21:45.622Z,17.08
2023-04-19T13:27:09.092Z,17.08
2023-04-19T13:32:31.508Z,17.22
2023-04-19T13:37:53.352Z,17.11
2023-04-19T13:43:15.446Z,17.12
2023-04-19T13:48:37.774Z,16.99
2023-04-19T14:00:17.036Z,16.35
2023-04-19T14:05:38.985Z,16.19
2023-04-19T14:11:01.584Z,16.08
2023-04-19T14:16:25.767Z,15.90
2023-04-19T14:21:50.059Z,15.86
2023-04-19T14:27:14.705Z,15.86
2023-04-19T14:32:37.451Z,15.71
2023-04-19T14:37:59.169Z,15.72
2023-04-19T14:43:21.286Z,15.63
2023-04-19T14:54:23.934Z,15.84
2023-04-19T14:59:56.320Z,15.54
2023-04-19T15:05:19.428Z,15.48
2023-04-19T15:10:43.814Z,15.39
2023-04-19T15:16:09.805Z,15.13
2023-04-19T15:21:31.972Z,14.95
2023-04-19T15:26:54.476Z,14.56
2023-04-19T15:32:17.095Z,14.44
2023-04-19T15:37:42.702Z,14.09
2023-04-19T15:43:06.136Z,13.86
2023-04-19T15:48:29.057Z,13.63
2023-04-19T15:53:53.819Z,13.53
2023-04-19T15:59:16.490Z,13.24
2023-04-19T16:04:39.016Z,13.09
2023-04-19T16:10:01.013Z,12.85
2023-04-19T16:15:23.676Z,12.68
2023-04-19T16:20:46.084Z,12.36
2023-04-19T16:26:08.246Z,12.13
2023-04-19T16:31:30.223Z,11.91
2023-04-19T16:36:53.897Z,11.76
2023-04-19T16:42:15.840Z,11.53
2023-04-19T16:47:37.848Z,11.26
2023-04-19T16:53:00.370Z,10.92
2023-04-19T16:58:22.932Z,10.85
2023-04-19T17:03:46.244Z,10.59
2023-04-19T17:09:08.598Z,10.50
2023-04-19T17:14:30.799Z,10.21
2023-04-19T17:19:55.966Z,10.03
2023-04-19T17:25:21.728Z,9.88
2023-04-19T17:30:44.534Z,9.67
2023-04-19T17:36:07.682Z,9.68
2023-04-19T17:41:29.715Z,9.31
2023-04-19T17:46:51.787Z,9.28
2023-04-19T18:00:18.107Z,8.66
2023-04-19T18:06:21.388Z,8.40
2023-04-19T18:11:44.458Z,8.26
2023-04-19T18:17:06.896Z,8.30
2023-04-19T18:22:28.908Z,8.27
2023-04-19T18:27:51.161Z,8.04
2023-04-19T18:33:13.466Z,7.88
2023-04-19T18:38:35.612Z,7.66
2023-04-19T18:49:26.875Z,7.22
2023-04-19T18:55:16.173Z,7.10
2023-04-19T19:00:40.480Z,7.02
2023-04-19T19:06:03.719Z,6.81
2023-04-19T19:11:54.241Z,6.79
2023-04-19T19:17:09.173Z,6.58
2023-04-19T19:22:31.429Z,6.48
2023-04-19T19:33:22.013Z,6.36
2023-04-19T19:38:44.638Z,6.29
2023-04-19T19:44:07.374Z,6.15
2023-04-19T19:56:16.498Z,6.05
2023-04-19T20:01:43.482Z,5.91
2023-04-19T20:12:31.960Z,5.69
2023-04-19T20:17:54.488Z,5.58
2023-04-19T20:23:17.303Z,5.54
2023-04-19T20:28:39.423Z,5.40
2023-04-19T20:34:01.730Z,5.18
2023-04-19T20:39:23.912Z,5.15
2023-04-19T20:44:45.851Z,4.97
2023-04-19T20:50:09.282Z,5.01
2023-04-19T20:55:31.438Z,4.90
2023-04-19T21:00:53.577Z,4.85
2023-04-19T21:06:18.835Z,4.76
2023-04-19T21:11:41.666Z,4.64
2023-04-19T21:17:04.480Z,4.55
2023-04-19T21:22:26.450Z,4.31
2023-04-19T21:27:48.702Z,4.31
2023-04-19T21:33:10.867Z,4.17
2023-04-19T21:38:32.523Z,3.98
2023-04-19T21:43:55.046Z,3.88
2023-04-19T21:49:17.169Z,3.74
2023-04-19T21:54:39.406Z,3.73
2023-04-19T22:00:01.755Z,3.75
2023-04-19T22:05:25.914Z,3.64
2023-04-19T22:10:47.659Z,3.50
2023-04-19T22:16:09.705Z,3.38
2023-04-19T22:21:33.283Z,3.30
2023-04-19T22:26:55.103Z,3.19
2023-04-19T22:32:16.978Z,3.08
2023-04-19T22:37:38.733Z,2.98
2023-04-19T22:43:01.331Z,2.91
2023-04-19T22:48:22.998Z,2.97
2023-04-19T22:53:45.270Z,2.89
2023-04-19T22:59:08.915Z,2.79
2023-04-19T23:50:31.053Z,1.87
2023-04-19T23:55:52.928Z,1.80
